sensor_id;sensor_type;location;lat;lon;timestamp;temperature;humidity
75164;HTU21D;63746;45.402;37.922;2023-08-21T00:01:22;26.84;38.33
75164;HTU21D;63746;45.402;37.922;2023-08-21T00:03:48;26.81;38.34
75164;HTU21D;63746;45.402;37.922;2023-08-21T00:06:14;26.79;38.37
75164;HTU21D;63746;45.402;37.922;2023-08-21T00:08:40;26.76;38.39
75164;HTU21D;63746;45.402;37.922;2023-08-21T00:11:06;26.73;38.39
75164;HTU21D;63746;45.402;37.922;2023-08-21T00:13:32;26.72;38.41
75164;HTU21D;63746;45.402;37.922;2023-08-21T00:15:58;26.69;38.40
75164;HTU21D;63746;45.402;37.922;2023-08-21T00:18:24;26.68;38.44
75164;HTU21D;63746;45.402;37.922;2023-08-21T00:20:50;26.65;38.43
75164;HTU21D;63746;45.402;37.922;2023-08-21T00:23:16;26.63;38.44
75164;HTU21D;63746;45.402;37.922;2023-08-21T00:25:46;26.62;38.43
75164;HTU21D;63746;45.402;37.922;2023-08-21T00:28:12;26.60;38.48
75164;HTU21D;63746;45.402;37.922;2023-08-21T00:30:38;26.57;38.49
75164;HTU21D;63746;45.402;37.922;2023-08-21T00:33:04;26.57;38.49
75164;HTU21D;63746;45.402;37.922;2023-08-21T00:35:31;26.55;38.48
75164;HTU21D;63746;45.402;37.922;2023-08-21T00:37:57;26.55;38.48
75164;HTU21D;63746;45.402;37.922;2023-08-21T00:40:23;26.53;38.48
75164;HTU21D;63746;45.402;37.922;2023-08-21T00:42:49;26.51;38.47
75164;HTU21D;63746;45.402;37.922;2023-08-21T00:45:15;26.47;38.48
75164;HTU21D;63746;45.402;37.922;2023-08-21T00:47:42;26.43;38.50
75164;HTU21D;63746;45.402;37.922;2023-08-21T00:50:09;26.41;38.54
75164;HTU21D;63746;45.402;37.922;2023-08-21T00:52:39;26.39;38.55
75164;HTU21D;63746;45.402;37.922;2023-08-21T00:55:07;26.38;38.57
75164;HTU21D;63746;45.402;37.922;2023-08-21T00:57:33;26.39;38.55
75164;HTU21D;63746;45.402;37.922;2023-08-21T01:00:00;26.37;38.55
75164;HTU21D;63746;45.402;37.922;2023-08-21T01:02:27;26.37;38.53
75164;HTU21D;63746;45.402;37.922;2023-08-21T01:04:53;26.35;38.53
75164;HTU21D;63746;45.402;37.922;2023-08-21T01:07:19;26.35;38.53
75164;HTU21D;63746;45.402;37.922;2023-08-21T01:10:22;26.32;38.59
75164;HTU21D;63746;45.402;37.922;2023-08-21T01:13:00;26.30;38.55
75164;HTU21D;63746;45.402;37.922;2023-08-21T01:15:28;26.24;38.57
75164;HTU21D;63746;45.402;37.922;2023-08-21T01:17:55;26.22;38.60
75164;HTU21D;63746;45.402;37.922;2023-08-21T01:20:22;26.19;38.62
75164;HTU21D;63746;45.402;37.922;2023-08-21T01:22:49;26.17;38.63
75164;HTU21D;63746;45.402;37.922;2023-08-21T01:25:34;26.13;38.62
75164;HTU21D;63746;45.402;37.922;2023-08-21T01:28:01;26.07;38.61
75164;HTU21D;63746;45.402;37.922;2023-08-21T01:30:28;25.98;38.62
75164;HTU21D;63746;45.402;37.922;2023-08-21T01:33:10;25.89;38.60
75164;HTU21D;63746;45.402;37.922;2023-08-21T01:35:39;25.78;38.73
75164;HTU21D;63746;45.402;37.922;2023-08-21T01:38:05;25.72;38.85
75164;HTU21D;63746;45.402;37.922;2023-08-21T01:40:31;25.68;38.91
75164;HTU21D;63746;45.402;37.922;2023-08-21T01:42:59;25.66;38.94
75164;HTU21D;63746;45.402;37.922;2023-08-21T01:45:26;25.62;38.95
75164;HTU21D;63746;45.402;37.922;2023-08-21T01:47:52;25.60;38.99
75164;HTU21D;63746;45.402;37.922;2023-08-21T01:50:19;25.58;38.99
75164;HTU21D;63746;45.402;37.922;2023-08-21T01:52:44;25.54;39.00
75164;HTU21D;63746;45.402;37.922;2023-08-21T01:55:11;25.53;38.99
75164;HTU21D;63746;45.402;37.922;2023-08-21T01:57:37;25.48;38.98
75164;HTU21D;63746;45.402;37.922;2023-08-21T02:00:22;25.40;39.02
75164;HTU21D;63746;45.402;37.922;2023-08-21T02:02:48;25.35;39.06
75164;HTU21D;63746;45.402;37.922;2023-08-21T02:05:14;25.31;39.11
75164;HTU21D;63746;45.402;37.922;2023-08-21T02:07:39;25.29;39.15
75164;HTU21D;63746;45.402;37.922;2023-08-21T02:10:06;25.25;39.18
75164;HTU21D;63746;45.402;37.922;2023-08-21T02:12:33;25.22;39.18
75164;HTU21D;63746;45.402;37.922;2023-08-21T02:14:59;25.17;39.22
75164;HTU21D;63746;45.402;37.922;2023-08-21T02:17:28;25.14;39.30
75164;HTU21D;63746;45.402;37.922;2023-08-21T02:19:54;25.09;39.30
75164;HTU21D;63746;45.402;37.922;2023-08-21T02:22:20;25.07;39.32
75164;HTU21D;63746;45.402;37.922;2023-08-21T02:24:46;25.01;39.33
75164;HTU21D;63746;45.402;37.922;2023-08-21T02:27:11;24.98;39.37
75164;HTU21D;63746;45.402;37.922;2023-08-21T02:29:38;24.94;39.41
75164;HTU21D;63746;45.402;37.922;2023-08-21T02:32:04;24.90;39.45
75164;HTU21D;63746;45.402;37.922;2023-08-21T02:34:30;24.88;39.49
75164;HTU21D;63746;45.402;37.922;2023-08-21T02:36:56;24.86;39.53
75164;HTU21D;63746;45.402;37.922;2023-08-21T02:39:28;24.84;39.58
75164;HTU21D;63746;45.402;37.922;2023-08-21T02:41:54;24.83;39.59
75164;HTU21D;63746;45.402;37.922;2023-08-21T02:44:20;24.82;39.59
75164;HTU21D;63746;45.402;37.922;2023-08-21T02:46:46;24.80;39.59
75164;HTU21D;63746;45.402;37.922;2023-08-21T02:49:12;24.79;39.58
75164;HTU21D;63746;45.402;37.922;2023-08-21T02:51:38;24.77;39.61
75164;HTU21D;63746;45.402;37.922;2023-08-21T02:54:04;24.75;39.63
75164;HTU21D;63746;45.402;37.922;2023-08-21T02:56:30;24.73;39.62
75164;HTU21D;63746;45.402;37.922;2023-08-21T02:58:56;24.69;39.64
75164;HTU21D;63746;45.402;37.922;2023-08-21T03:01:23;24.68;39.68
75164;HTU21D;63746;45.402;37.922;2023-08-21T03:03:49;24.63;39.72
75164;HTU21D;63746;45.402;37.922;2023-08-21T03:06:15;24.59;39.75
75164;HTU21D;63746;45.402;37.922;2023-08-21T03:08:42;24.57;39.81
75164;HTU21D;63746;45.402;37.922;2023-08-21T03:11:09;24.57;39.87
75164;HTU21D;63746;45.402;37.922;2023-08-21T03:13:35;24.57;39.89
75164;HTU21D;63746;45.402;37.922;2023-08-21T03:16:01;24.56;39.91
75164;HTU21D;63746;45.402;37.922;2023-08-21T03:18:31;24.55;40.00
75164;HTU21D;63746;45.402;37.922;2023-08-21T03:20:57;24.55;39.97
75164;HTU21D;63746;45.402;37.922;2023-08-21T03:23:23;24.55;40.03
75164;HTU21D;63746;45.402;37.922;2023-08-21T03:25:53;24.56;40.11
75164;HTU21D;63746;45.402;37.922;2023-08-21T03:28:19;24.55;40.04
75164;HTU21D;63746;45.402;37.922;2023-08-21T03:30:45;24.55;40.06
75164;HTU21D;63746;45.402;37.922;2023-08-21T03:33:11;24.57;40.10
75164;HTU21D;63746;45.402;37.922;2023-08-21T03:35:37;24.58;40.15
75164;HTU21D;63746;45.402;37.922;2023-08-21T03:38:03;24.61;40.16
75164;HTU21D;63746;45.402;37.922;2023-08-21T03:40:39;24.64;40.22
75164;HTU21D;63746;45.402;37.922;2023-08-21T03:43:05;24.69;40.16
75164;HTU21D;63746;45.402;37.922;2023-08-21T03:45:31;24.71;40.15
75164;HTU21D;63746;45.402;37.922;2023-08-21T03:47:57;24.74;40.16
75164;HTU21D;63746;45.402;37.922;2023-08-21T03:50:23;24.76;40.17
75164;HTU21D;63746;45.402;37.922;2023-08-21T03:52:49;24.79;40.18
75164;HTU21D;63746;45.402;37.922;2023-08-21T03:55:15;24.84;40.19
75164;HTU21D;63746;45.402;37.922;2023-08-21T03:57:42;24.88;40.20
75164;HTU21D;63746;45.402;37.922;2023-08-21T04:00:09;24.90;40.20
75164;HTU21D;63746;45.402;37.922;2023-08-21T04:02:41;24.94;40.20
75164;HTU21D;63746;45.402;37.922;2023-08-21T04:05:07;24.97;40.20
75164;HTU21D;63746;45.402;37.922;2023-08-21T04:07:33;25.00;40.20
75164;HTU21D;63746;45.402;37.922;2023-08-21T04:09:59;25.04;40.21
75164;HTU21D;63746;45.402;37.922;2023-08-21T04:12:26;25.07;40.23
75164;HTU21D;63746;45.402;37.922;2023-08-21T04:14:52;25.14;40.23
75164;HTU21D;63746;45.402;37.922;2023-08-21T04:17:22;25.16;40.33
75164;HTU21D;63746;45.402;37.922;2023-08-21T04:19:48;25.19;40.22
75164;HTU21D;63746;45.402;37.922;2023-08-21T04:22:14;25.23;40.25
75164;HTU21D;63746;45.402;37.922;2023-08-21T04:24:41;25.29;40.27
75164;HTU21D;63746;45.402;37.922;2023-08-21T04:27:07;25.32;40.26
75164;HTU21D;63746;45.402;37.922;2023-08-21T04:29:35;25.38;40.29
75164;HTU21D;63746;45.402;37.922;2023-08-21T04:32:00;25.44;40.27
75164;HTU21D;63746;45.402;37.922;2023-08-21T04:34:26;25.50;40.27
75164;HTU21D;63746;45.402;37.922;2023-08-21T04:36:53;25.57;40.26
75164;HTU21D;63746;45.402;37.922;2023-08-21T04:39:19;25.63;40.25
75164;HTU21D;63746;45.402;37.922;2023-08-21T04:41:46;25.69;40.25
75164;HTU21D;63746;45.402;37.922;2023-08-21T04:44:12;25.77;40.22
75164;HTU21D;63746;45.402;37.922;2023-08-21T04:46:37;25.83;40.20
75164;HTU21D;63746;45.402;37.922;2023-08-21T04:49:04;25.91;40.20
75164;HTU21D;63746;45.402;37.922;2023-08-21T04:51:29;25.98;40.17
75164;HTU21D;63746;45.402;37.922;2023-08-21T04:53:58;26.07;40.15
75164;HTU21D;63746;45.402;37.922;2023-08-21T04:56:26;26.13;40.13
75164;HTU21D;63746;45.402;37.922;2023-08-21T04:58:53;26.19;40.10
75164;HTU21D;63746;45.402;37.922;2023-08-21T05:01:19;26.25;40.08
75164;HTU21D;63746;45.402;37.922;2023-08-21T05:03:48;26.34;40.08
75164;HTU21D;63746;45.402;37.922;2023-08-21T05:06:14;26.41;40.07
75164;HTU21D;63746;45.402;37.922;2023-08-21T05:08:41;26.50;40.04
75164;HTU21D;63746;45.402;37.922;2023-08-21T05:11:08;26.58;40.04
75164;HTU21D;63746;45.402;37.922;2023-08-21T05:13:36;26.67;40.03
75164;HTU21D;63746;45.402;37.922;2023-08-21T05:16:05;26.78;40.03
75164;HTU21D;63746;45.402;37.922;2023-08-21T05:18:35;26.89;40.00
75164;HTU21D;63746;45.402;37.922;2023-08-21T05:21:00;27.01;39.97
75164;HTU21D;63746;45.402;37.922;2023-08-21T05:23:28;27.11;39.91
75164;HTU21D;63746;45.402;37.922;2023-08-21T05:25:59;27.23;39.89
75164;HTU21D;63746;45.402;37.922;2023-08-21T05:28:25;27.37;39.84
75164;HTU21D;63746;45.402;37.922;2023-08-21T05:30:51;27.47;39.78
75164;HTU21D;63746;45.402;37.922;2023-08-21T05:33:18;27.60;39.72
75164;HTU21D;63746;45.402;37.922;2023-08-21T05:35:47;27.72;39.67
75164;HTU21D;63746;45.402;37.922;2023-08-21T05:38:13;27.84;39.62
75164;HTU21D;63746;45.402;37.922;2023-08-21T05:40:43;27.99;39.60
75164;HTU21D;63746;45.402;37.922;2023-08-21T05:43:09;28.12;39.50
75164;HTU21D;63746;45.402;37.922;2023-08-21T05:45:38;28.25;39.44
75164;HTU21D;63746;45.402;37.922;2023-08-21T05:48:04;28.37;39.40
75164;HTU21D;63746;45.402;37.922;2023-08-21T05:50:30;28.50;39.34
75164;HTU21D;63746;45.402;37.922;2023-08-21T05:52:56;28.62;39.27
75164;HTU21D;63746;45.402;37.922;2023-08-21T05:55:24;28.76;39.20
75164;HTU21D;63746;45.402;37.922;2023-08-21T05:57:50;28.88;39.12
75164;HTU21D;63746;45.402;37.922;2023-08-21T06:00:19;29.02;39.08
75164;HTU21D;63746;45.402;37.922;2023-08-21T06:02:45;29.15;39.02
75164;HTU21D;63746;45.402;37.922;2023-08-21T06:05:26;29.31;38.88
75164;HTU21D;63746;45.402;37.922;2023-08-21T06:07:52;29.42;38.92
75164;HTU21D;63746;45.402;37.922;2023-08-21T06:10:18;29.54;38.85
75164;HTU21D;63746;45.402;37.922;2023-08-21T06:12:44;29.66;38.79
75164;HTU21D;63746;45.402;37.922;2023-08-21T06:15:10;29.80;38.70
75164;HTU21D;63746;45.402;37.922;2023-08-21T06:17:38;29.91;38.61
75164;HTU21D;63746;45.402;37.922;2023-08-21T06:20:05;30.04;38.55
75164;HTU21D;63746;45.402;37.922;2023-08-21T06:22:37;30.17;38.49
75164;HTU21D;63746;45.402;37.922;2023-08-21T06:25:22;30.31;38.29
75164;HTU21D;63746;45.402;37.922;2023-08-21T06:27:48;30.42;38.32
75164;HTU21D;63746;45.402;37.922;2023-08-21T06:30:14;30.54;38.29
75164;HTU21D;63746;45.402;37.922;2023-08-21T06:32:43;30.66;38.23
75164;HTU21D;63746;45.402;37.922;2023-08-21T06:35:09;30.78;38.17
75164;HTU21D;63746;45.402;37.922;2023-08-21T06:37:35;30.90;38.09
75164;HTU21D;63746;45.402;37.922;2023-08-21T06:40:01;31.01;38.04
75164;HTU21D;63746;45.402;37.922;2023-08-21T06:42:28;31.14;37.93
75164;HTU21D;63746;45.402;37.922;2023-08-21T06:44:55;31.22;37.86
75164;HTU21D;63746;45.402;37.922;2023-08-21T06:47:21;31.31;37.83
75164;HTU21D;63746;45.402;37.922;2023-08-21T06:49:47;31.42;37.79
75164;HTU21D;63746;45.402;37.922;2023-08-21T06:52:13;31.54;37.75
75164;HTU21D;63746;45.402;37.922;2023-08-21T06:54:39;31.64;37.69
75164;HTU21D;63746;45.402;37.922;2023-08-21T06:57:05;31.78;37.63
75164;HTU21D;63746;45.402;37.922;2023-08-21T06:59:31;31.89;37.56
75164;HTU21D;63746;45.402;37.922;2023-08-21T07:02:02;32.01;37.48
75164;HTU21D;63746;45.402;37.922;2023-08-21T07:04:28;32.13;37.40
75164;HTU21D;63746;45.402;37.922;2023-08-21T07:06:54;32.24;37.36
75164;HTU21D;63746;45.402;37.922;2023-08-21T07:09:21;32.32;37.29
75164;HTU21D;63746;45.402;37.922;2023-08-21T07:11:47;32.44;37.23
75164;HTU21D;63746;45.402;37.922;2023-08-21T07:14:13;32.54;37.18
75164;HTU21D;63746;45.402;37.922;2023-08-21T07:16:39;32.64;37.11
75164;HTU21D;63746;45.402;37.922;2023-08-21T07:19:06;32.73;37.07
75164;HTU21D;63746;45.402;37.922;2023-08-21T07:21:32;32.84;37.03
75164;HTU21D;63746;45.402;37.922;2023-08-21T07:24:01;32.96;36.98
75164;HTU21D;63746;45.402;37.922;2023-08-21T07:26:28;33.05;36.94
75164;HTU21D;63746;45.402;37.922;2023-08-21T07:28:54;33.18;36.91
75164;HTU21D;63746;45.402;37.922;2023-08-21T07:31:20;33.32;36.85
75164;HTU21D;63746;45.402;37.922;2023-08-21T07:33:46;33.46;36.77
75164;HTU21D;63746;45.402;37.922;2023-08-21T07:36:12;33.56;36.68
75164;HTU21D;63746;45.402;37.922;2023-08-21T07:38:45;33.66;36.57
75164;HTU21D;63746;45.402;37.922;2023-08-21T07:41:12;33.76;36.56
75164;HTU21D;63746;45.402;37.922;2023-08-21T07:43:43;33.90;36.47
75164;HTU21D;63746;45.402;37.922;2023-08-21T07:46:11;34.01;36.49
75164;HTU21D;63746;45.402;37.922;2023-08-21T07:48:39;34.12;36.43
75164;HTU21D;63746;45.402;37.922;2023-08-21T07:51:05;34.24;36.36
75164;HTU21D;63746;45.402;37.922;2023-08-21T07:53:31;34.35;36.28
75164;HTU21D;63746;45.402;37.922;2023-08-21T07:56:01;34.44;36.14
75164;HTU21D;63746;45.402;37.922;2023-08-21T07:58:27;34.52;36.15
75164;HTU21D;63746;45.402;37.922;2023-08-21T08:00:53;34.61;36.12
75164;HTU21D;63746;45.402;37.922;2023-08-21T08:03:19;34.73;36.11
75164;HTU21D;63746;45.402;37.922;2023-08-21T08:05:45;34.85;36.04
75164;HTU21D;63746;45.402;37.922;2023-08-21T08:08:11;34.94;35.95
75164;HTU21D;63746;45.402;37.922;2023-08-21T08:10:38;35.05;35.86
75164;HTU21D;63746;45.402;37.922;2023-08-21T08:13:05;35.11;35.79
75164;HTU21D;63746;45.402;37.922;2023-08-21T08:15:31;35.19;35.78
75164;HTU21D;63746;45.402;37.922;2023-08-21T08:17:57;35.24;35.73
75164;HTU21D;63746;45.402;37.922;2023-08-21T08:20:23;35.31;35.68
75164;HTU21D;63746;45.402;37.922;2023-08-21T08:22:49;35.41;35.65
75164;HTU21D;63746;45.402;37.922;2023-08-21T08:25:15;35.50;35.60
75164;HTU21D;63746;45.402;37.922;2023-08-21T08:27:43;35.62;35.56
75164;HTU21D;63746;45.402;37.922;2023-08-21T08:30:10;35.72;35.50
75164;HTU21D;63746;45.402;37.922;2023-08-21T08:32:36;35.82;35.42
75164;HTU21D;63746;45.402;37.922;2023-08-21T08:35:02;35.90;35.35
75164;HTU21D;63746;45.402;37.922;2023-08-21T08:37:28;35.99;35.28
75164;HTU21D;63746;45.402;37.922;2023-08-21T08:39:54;36.08;35.24
75164;HTU21D;63746;45.402;37.922;2023-08-21T08:42:20;36.16;35.17
75164;HTU21D;63746;45.402;37.922;2023-08-21T08:44:47;36.24;35.10
75164;HTU21D;63746;45.402;37.922;2023-08-21T08:47:13;36.27;35.02
75164;HTU21D;63746;45.402;37.922;2023-08-21T08:49:41;36.33;34.99
75164;HTU21D;63746;45.402;37.922;2023-08-21T08:52:07;36.41;34.97
75164;HTU21D;63746;45.402;37.922;2023-08-21T08:54:33;36.47;34.92
75164;HTU21D;63746;45.402;37.922;2023-08-21T08:57:01;36.58;34.88
75164;HTU21D;63746;45.402;37.922;2023-08-21T08:59:30;36.66;34.73
75164;HTU21D;63746;45.402;37.922;2023-08-21T09:01:57;36.76;34.73
75164;HTU21D;63746;45.402;37.922;2023-08-21T09:04:23;36.84;34.66
75164;HTU21D;63746;45.402;37.922;2023-08-21T09:06:49;36.89;34.56
75164;HTU21D;63746;45.402;37.922;2023-08-21T09:09:15;36.91;34.53
75164;HTU21D;63746;45.402;37.922;2023-08-21T09:11:45;36.98;34.29
75164;HTU21D;63746;45.402;37.922;2023-08-21T09:14:13;37.02;34.44
75164;HTU21D;63746;45.402;37.922;2023-08-21T09:16:59;37.08;33.76
75164;HTU21D;63746;45.402;37.922;2023-08-21T09:19:25;37.13;34.31
75164;HTU21D;63746;45.402;37.922;2023-08-21T09:21:51;37.15;34.28
75164;HTU21D;63746;45.402;37.922;2023-08-21T09:24:17;37.18;34.24
75164;HTU21D;63746;45.402;37.922;2023-08-21T09:26:43;37.20;34.24
75164;HTU21D;63746;45.402;37.922;2023-08-21T09:29:09;37.27;34.19
75164;HTU21D;63746;45.402;37.922;2023-08-21T09:31:36;37.33;34.12
75164;HTU21D;63746;45.402;37.922;2023-08-21T09:34:04;37.42;34.08
75164;HTU21D;63746;45.402;37.922;2023-08-21T09:36:33;37.48;34.03
75164;HTU21D;63746;45.402;37.922;2023-08-21T09:39:00;37.50;33.93
75164;HTU21D;63746;45.402;37.922;2023-08-21T09:41:26;37.54;33.92
75164;HTU21D;63746;45.402;37.922;2023-08-21T09:43:52;37.57;33.90
75164;HTU21D;63746;45.402;37.922;2023-08-21T09:46:25;37.61;33.62
75164;HTU21D;63746;45.402;37.922;2023-08-21T09:48:52;37.67;33.85
75164;HTU21D;63746;45.402;37.922;2023-08-21T09:51:19;37.74;33.83
75164;HTU21D;63746;45.402;37.922;2023-08-21T09:53:48;37.80;33.77
75164;HTU21D;63746;45.402;37.922;2023-08-21T09:56:17;37.87;33.77
75164;HTU21D;63746;45.402;37.922;2023-08-21T09:58:43;37.94;33.73
75164;HTU21D;63746;45.402;37.922;2023-08-21T10:01:10;38.00;33.67
75164;HTU21D;63746;45.402;37.922;2023-08-21T10:03:41;38.05;33.67
75164;HTU21D;63746;45.402;37.922;2023-08-21T10:06:11;38.10;33.53
75164;HTU21D;63746;45.402;37.922;2023-08-21T10:08:39;38.17;33.57
75164;HTU21D;63746;45.402;37.922;2023-08-21T10:11:08;38.22;33.58
75164;HTU21D;63746;45.402;37.922;2023-08-21T10:13:37;38.25;33.52
75164;HTU21D;63746;45.402;37.922;2023-08-21T10:16:03;38.31;33.54
75164;HTU21D;63746;45.402;37.922;2023-08-21T10:18:35;38.33;33.40
75164;HTU21D;63746;45.402;37.922;2023-08-21T10:21:22;38.36;33.05
75164;HTU21D;63746;45.402;37.922;2023-08-21T10:23:54;38.39;33.45
75164;HTU21D;63746;45.402;37.922;2023-08-21T10:26:22;38.40;33.44
75164;HTU21D;63746;45.402;37.922;2023-08-21T10:29:02;38.44;33.15
75164;HTU21D;63746;45.402;37.922;2023-08-21T10:34:09;38.50;33.18
75164;HTU21D;63746;45.402;37.922;2023-08-21T10:42:11;38.55;32.89
75164;HTU21D;63746;45.402;37.922;2023-08-21T10:47:15;38.60;33.31
75164;HTU21D;63746;45.402;37.922;2023-08-21T10:49:44;38.63;33.36
75164;HTU21D;63746;45.402;37.922;2023-08-21T10:52:10;38.64;33.37
75164;HTU21D;63746;45.402;37.922;2023-08-21T10:54:57;38.66;33.01
75164;HTU21D;63746;45.402;37.922;2023-08-21T10:57:29;38.66;33.35
75164;HTU21D;63746;45.402;37.922;2023-08-21T10:59:56;38.70;33.40
75164;HTU21D;63746;45.402;37.922;2023-08-21T11:02:24;38.71;33.40
75164;HTU21D;63746;45.402;37.922;2023-08-21T11:04:51;38.75;33.41
75164;HTU21D;63746;45.402;37.922;2023-08-21T11:07:17;38.75;33.40
75164;HTU21D;63746;45.402;37.922;2023-08-21T11:09:44;38.75;33.40
75164;HTU21D;63746;45.402;37.922;2023-08-21T11:12:16;38.76;33.31
75164;HTU21D;63746;45.402;37.922;2023-08-21T11:14:44;38.76;33.42
75164;HTU21D;63746;45.402;37.922;2023-08-21T11:17:11;38.79;33.43
75164;HTU21D;63746;45.402;37.922;2023-08-21T11:19:38;38.79;33.36
75164;HTU21D;63746;45.402;37.922;2023-08-21T11:22:05;38.76;33.35
75164;HTU21D;63746;45.402;37.922;2023-08-21T11:27:04;38.60;33.32
75164;HTU21D;63746;45.402;37.922;2023-08-21T11:29:42;38.52;33.33
75164;HTU21D;63746;45.402;37.922;2023-08-21T11:32:20;38.47;33.15
75164;HTU21D;63746;45.402;37.922;2023-08-21T11:34:51;38.43;33.33
75164;HTU21D;63746;45.402;37.922;2023-08-21T11:37:19;38.39;33.47
75164;HTU21D;63746;45.402;37.922;2023-08-21T11:39:48;38.37;33.44
75164;HTU21D;63746;45.402;37.922;2023-08-21T11:42:15;38.38;33.47
75164;HTU21D;63746;45.402;37.922;2023-08-21T11:44:50;38.36;33.17
75164;HTU21D;63746;45.402;37.922;2023-08-21T11:47:18;38.35;33.40
75164;HTU21D;63746;45.402;37.922;2023-08-21T11:49:46;38.32;33.39
75164;HTU21D;63746;45.402;37.922;2023-08-21T11:52:23;38.32;33.15
75164;HTU21D;63746;45.402;37.922;2023-08-21T11:54:54;38.30;33.37
75164;HTU21D;63746;45.402;37.922;2023-08-21T11:57:21;38.30;33.35
75164;HTU21D;63746;45.402;37.922;2023-08-21T11:59:54;38.30;33.20
75164;HTU21D;63746;45.402;37.922;2023-08-21T12:02:26;38.28;33.16
75164;HTU21D;63746;45.402;37.922;2023-08-21T12:05:01;38.25;33.02
75164;HTU21D;63746;45.402;37.922;2023-08-21T12:07:28;38.23;33.31
75164;HTU21D;63746;45.402;37.922;2023-08-21T12:09:54;38.21;33.30
75164;HTU21D;63746;45.402;37.922;2023-08-21T12:12:20;38.20;33.29
75164;HTU21D;63746;45.402;37.922;2023-08-21T12:14:46;38.18;33.28
75164;HTU21D;63746;45.402;37.922;2023-08-21T12:17:12;38.18;33.25
75164;HTU21D;63746;45.402;37.922;2023-08-21T12:19:38;38.17;33.24
75164;HTU21D;63746;45.402;37.922;2023-08-21T12:22:04;38.16;33.23
75164;HTU21D;63746;45.402;37.922;2023-08-21T12:24:31;38.16;33.24
75164;HTU21D;63746;45.402;37.922;2023-08-21T12:26:57;38.14;33.22
75164;HTU21D;63746;45.402;37.922;2023-08-21T12:29:24;38.16;33.22
75164;HTU21D;63746;45.402;37.922;2023-08-21T12:31:50;38.15;33.23
75164;HTU21D;63746;45.402;37.922;2023-08-21T12:34:16;38.15;33.22
75164;HTU21D;63746;45.402;37.922;2023-08-21T12:36:42;38.12;33.24
75164;HTU21D;63746;45.402;37.922;2023-08-21T12:39:08;38.11;33.25
75164;HTU21D;63746;45.402;37.922;2023-08-21T12:41:35;38.09;33.26
75164;HTU21D;63746;45.402;37.922;2023-08-21T12:44:01;38.06;33.27
75164;HTU21D;63746;45.402;37.922;2023-08-21T12:46:29;38.02;33.31
75164;HTU21D;63746;45.402;37.922;2023-08-21T12:48:56;38.00;33.32
75164;HTU21D;63746;45.402;37.922;2023-08-21T12:51:22;37.94;33.34
75164;HTU21D;63746;45.402;37.922;2023-08-21T12:53:49;37.89;33.38
75164;HTU21D;63746;45.402;37.922;2023-08-21T12:56:16;37.87;33.41
75164;HTU21D;63746;45.402;37.922;2023-08-21T12:58:44;37.81;33.42
75164;HTU21D;63746;45.402;37.922;2023-08-21T13:01:10;37.77;33.43
75164;HTU21D;63746;45.402;37.922;2023-08-21T13:03:36;37.72;33.44
75164;HTU21D;63746;45.402;37.922;2023-08-21T13:06:20;37.64;33.07
75164;HTU21D;63746;45.402;37.922;2023-08-21T13:08:46;37.59;33.49
75164;HTU21D;63746;45.402;37.922;2023-08-21T13:11:12;37.52;33.51
75164;HTU21D;63746;45.402;37.922;2023-08-21T13:13:38;37.49;33.52
75164;HTU21D;63746;45.402;37.922;2023-08-21T13:16:04;37.43;33.56
75164;HTU21D;63746;45.402;37.922;2023-08-21T13:18:30;37.36;33.58
75164;HTU21D;63746;45.402;37.922;2023-08-21T13:20:56;37.30;33.60
75164;HTU21D;63746;45.402;37.922;2023-08-21T13:23:22;37.23;33.62
75164;HTU21D;63746;45.402;37.922;2023-08-21T13:25:49;37.15;33.63
75164;HTU21D;63746;45.402;37.922;2023-08-21T13:28:15;37.07;33.68
75164;HTU21D;63746;45.402;37.922;2023-08-21T13:30:41;37.01;33.72
75164;HTU21D;63746;45.402;37.922;2023-08-21T13:33:07;36.96;33.73
75164;HTU21D;63746;45.402;37.922;2023-08-21T13:35:33;36.89;33.76
75164;HTU21D;63746;45.402;37.922;2023-08-21T13:37:59;36.85;33.78
75164;HTU21D;63746;45.402;37.922;2023-08-21T13:40:25;36.77;33.79
75164;HTU21D;63746;45.402;37.922;2023-08-21T13:42:51;36.72;33.81
75164;HTU21D;63746;45.402;37.922;2023-08-21T13:45:18;36.68;33.82
75164;HTU21D;63746;45.402;37.922;2023-08-21T13:47:46;36.63;33.86
75164;HTU21D;63746;45.402;37.922;2023-08-21T13:50:13;36.56;33.89
75164;HTU21D;63746;45.402;37.922;2023-08-21T13:52:40;36.53;33.92
75164;HTU21D;63746;45.402;37.922;2023-08-21T13:55:07;36.48;33.96
75164;HTU21D;63746;45.402;37.922;2023-08-21T13:57:34;36.45;33.99
75164;HTU21D;63746;45.402;37.922;2023-08-21T14:00:00;36.42;34.01
75164;HTU21D;63746;45.402;37.922;2023-08-21T14:02:30;36.39;34.03
75164;HTU21D;63746;45.402;37.922;2023-08-21T14:04:56;36.33;34.05
75164;HTU21D;63746;45.402;37.922;2023-08-21T14:07:23;36.30;34.05
75164;HTU21D;63746;45.402;37.922;2023-08-21T14:09:50;36.25;34.06
75164;HTU21D;63746;45.402;37.922;2023-08-21T14:12:17;36.19;34.11
75164;HTU21D;63746;45.402;37.922;2023-08-21T14:14:43;36.11;34.12
75164;HTU21D;63746;45.402;37.922;2023-08-21T14:17:09;36.04;34.15
75164;HTU21D;63746;45.402;37.922;2023-08-21T14:19:36;35.97;34.18
75164;HTU21D;63746;45.402;37.922;2023-08-21T14:22:02;35.89;34.21
75164;HTU21D;63746;45.402;37.922;2023-08-21T14:24:28;35.83;34.27
75164;HTU21D;63746;45.402;37.922;2023-08-21T14:26:54;35.77;34.29
75164;HTU21D;63746;45.402;37.922;2023-08-21T14:29:20;35.68;34.33
75164;HTU21D;63746;45.402;37.922;2023-08-21T14:31:46;35.59;34.37
75164;HTU21D;63746;45.402;37.922;2023-08-21T14:34:14;35.50;34.41
75164;HTU21D;63746;45.402;37.922;2023-08-21T14:36:41;35.43;34.44
75164;HTU21D;63746;45.402;37.922;2023-08-21T14:39:08;35.36;34.51
75164;HTU21D;63746;45.402;37.922;2023-08-21T14:41:37;35.28;34.52
75164;HTU21D;63746;45.402;37.922;2023-08-21T14:44:04;35.22;34.55
75164;HTU21D;63746;45.402;37.922;2023-08-21T14:46:31;35.16;34.56
75164;HTU21D;63746;45.402;37.922;2023-08-21T14:48:57;35.11;34.59
75164;HTU21D;63746;45.402;37.922;2023-08-21T14:51:23;35.07;34.61
75164;HTU21D;63746;45.402;37.922;2023-08-21T14:53:49;35.00;34.61
75164;HTU21D;63746;45.402;37.922;2023-08-21T14:56:15;34.95;34.65
75164;HTU21D;63746;45.402;37.922;2023-08-21T14:58:42;34.88;34.65
75164;HTU21D;63746;45.402;37.922;2023-08-21T15:01:09;34.83;34.67
75164;HTU21D;63746;45.402;37.922;2023-08-21T15:03:39;34.75;34.68
75164;HTU21D;63746;45.402;37.922;2023-08-21T15:06:05;34.67;34.74
75164;HTU21D;63746;45.402;37.922;2023-08-21T15:08:32;34.61;34.78
75164;HTU21D;63746;45.402;37.922;2023-08-21T15:13:44;34.50;34.85
75164;HTU21D;63746;45.402;37.922;2023-08-21T15:16:10;34.44;34.86
75164;HTU21D;63746;45.402;37.922;2023-08-21T15:18:36;34.39;34.89
75164;HTU21D;63746;45.402;37.922;2023-08-21T15:21:02;34.34;34.92